sensor_id;sensor_type;location;lat;lon;timestamp;pressure;altitude;pressure_sealevel;temperature;humidity
8039;BME280;4062;49.844;8.120;2023-04-08T00:00:06;99695.41;;;13.40;56.40
8039;BME280;4062;49.844;8.120;2023-04-08T00:02:11;99693.59;;;13.40;56.30
8039;BME280;4062;49.844;8.120;2023-04-08T00:04:12;99706.88;;;13.40;56.29
8039;BME280;4062;49.844;8.120;2023-04-08T00:06:14;99694.53;;;13.39;56.34
8039;BME280;4062;49.844;8.120;2023-04-08T00:08:16;99700.72;;;13.40;56.37
8039;BME280;4062;49.844;8.120;2023-04-08T00:10:17;99698.06;;;13.40;56.18
8039;BME280;4062;49.844;8.120;2023-04-08T00:12:19;99691.88;;;13.39;56.16
8039;BME280;4062;49.844;8.120;2023-04-08T00:14:20;99698.91;;;13.40;56.20
8039;BME280;4062;49.844;8.120;2023-04-08T00:16:21;99698.91;;;13.40;56.27
8039;BME280;4062;49.844;8.120;2023-04-08T00:18:23;99700.72;;;13.40;56.20
8039;BME280;4062;49.844;8.120;2023-04-08T00:20:26;99701.56;;;13.40;56.20
8039;BME280;4062;49.844;8.120;2023-04-08T00:22:27;99709.53;;;13.40;56.23
8039;BME280;4062;49.844;8.120;2023-04-08T00:24:29;99706.03;;;13.40;56.20
8039;BME280;4062;49.844;8.120;2023-04-08T00:26:30;99705.13;;;13.39;56.18
8039;BME280;4062;49.844;8.120;2023-04-08T00:28:32;99711.34;;;13.40;56.23
8039;BME280;4062;49.844;8.120;2023-04-08T00:30:33;99706.03;;;13.40;56.21
8039;BME280;4062;49.844;8.120;2023-04-08T00:32:34;99706.03;;;13.40;56.19
8039;BME280;4062;49.844;8.120;2023-04-08T00:34:36;99701.56;;;13.40;56.16
8039;BME280;4062;49.844;8.120;2023-04-08T00:36:38;99694.53;;;13.39;56.30
8039;BME280;4062;49.844;8.120;2023-04-08T00:38:40;99707.78;;;13.39;56.24
8039;BME280;4062;49.844;8.120;2023-04-08T00:40:41;99704.22;;;13.40;56.31
8039;BME280;4062;49.844;8.120;2023-04-08T00:42:43;99706.88;;;13.40;56.25
8039;BME280;4062;49.844;8.120;2023-04-08T00:44:44;99703.38;;;13.40;56.38
8039;BME280;4062;49.844;8.120;2023-04-08T00:46:45;99704.28;;;13.39;56.35
8039;BME280;4062;49.844;8.120;2023-04-08T00:48:47;99707.78;;;13.39;56.25
8039;BME280;4062;49.844;8.120;2023-04-08T00:50:48;99711.34;;;13.40;56.38
8039;BME280;4062;49.844;8.120;2023-04-08T00:52:50;99705.13;;;13.39;56.32
8039;BME280;4062;49.844;8.120;2023-04-08T00:54:51;99705.13;;;13.39;56.25
8039;BME280;4062;49.844;8.120;2023-04-08T00:56:53;99702.47;;;13.39;56.24
8039;BME280;4062;49.844;8.120;2023-04-08T00:58:54;99705.13;;;13.39;56.32
8039;BME280;4062;49.844;8.120;2023-04-08T01:01:02;99707.78;;;13.39;56.35
8039;BME280;4062;49.844;8.120;2023-04-08T01:03:26;99710.44;;;13.39;56.40
8039;BME280;4062;49.844;8.120;2023-04-08T01:07:53;99712.19;;;13.40;56.36
8039;BME280;4062;49.844;8.120;2023-04-08T01:09:56;99715.75;;;13.39;56.24
8039;BME280;4062;49.844;8.120;2023-04-08T01:12:01;99707.78;;;13.39;56.25
8039;BME280;4062;49.844;8.120;2023-04-08T01:14:05;99711.34;;;13.40;56.23
8039;BME280;4062;49.844;8.120;2023-04-08T01:16:13;99711.34;;;13.40;56.26
8039;BME280;4062;49.844;8.120;2023-04-08T01:18:16;99710.44;;;13.39;56.35
8039;BME280;4062;49.844;8.120;2023-04-08T01:20:18;99711.31;;;13.38;56.31
8039;BME280;4062;49.844;8.120;2023-04-08T01:24:38;99714.00;;;13.40;56.21
8039;BME280;4062;49.844;8.120;2023-04-08T01:26:41;99710.44;;;13.39;56.41
8039;BME280;4062;49.844;8.120;2023-04-08T01:28:43;99706.03;;;13.40;56.26
8039;BME280;4062;49.844;8.120;2023-04-08T01:30:45;99710.44;;;13.39;56.40
8039;BME280;4062;49.844;8.120;2023-04-08T01:32:48;99705.13;;;13.39;56.28
8039;BME280;4062;49.844;8.120;2023-04-08T01:34:53;99703.38;;;13.38;56.26
8039;BME280;4062;49.844;8.120;2023-04-08T01:36:55;99701.63;;;13.39;56.32
8039;BME280;4062;49.844;8.120;2023-04-08T01:39:00;99705.13;;;13.39;56.25
8039;BME280;4062;49.844;8.120;2023-04-08T01:41:03;99707.78;;;13.39;56.21
8039;BME280;4062;49.844;8.120;2023-04-08T01:43:09;99706.03;;;13.38;56.35
8039;BME280;4062;49.844;8.120;2023-04-08T01:45:12;99702.47;;;13.39;56.39
8039;BME280;4062;49.844;8.120;2023-04-08T01:47:15;99705.13;;;13.39;56.30
8039;BME280;4062;49.844;8.120;2023-04-08T01:49:19;99699.81;;;13.39;56.32
8039;BME280;4062;49.844;8.120;2023-04-08T01:51:22;99705.13;;;13.39;56.23
8039;BME280;4062;49.844;8.120;2023-04-08T01:53:24;99706.94;;;13.39;56.31
8039;BME280;4062;49.844;8.120;2023-04-08T01:55:26;99702.47;;;13.39;56.28
8039;BME280;4062;49.844;8.120;2023-04-08T01:57:32;99703.38;;;13.38;56.33
8039;BME280;4062;49.844;8.120;2023-04-08T01:59:38;99699.81;;;13.39;56.25
8039;BME280;4062;49.844;8.120;2023-04-08T02:01:41;99697.19;;;13.39;56.34
8039;BME280;4062;49.844;8.120;2023-04-08T02:03:45;99701.63;;;13.39;56.34
8039;BME280;4062;49.844;8.120;2023-04-08T02:05:48;99705.13;;;13.39;56.38
8039;BME280;4062;49.844;8.120;2023-04-08T02:07:49;99700.72;;;13.38;56.27
8039;BME280;4062;49.844;8.120;2023-04-08T02:09:51;99698.97;;;13.39;56.31
8039;BME280;4062;49.844;8.120;2023-04-08T02:11:53;99700.72;;;13.38;56.33
8039;BME280;4062;49.844;8.120;2023-04-08T02:13:54;99700.72;;;13.38;56.37
8039;BME280;4062;49.844;8.120;2023-04-08T02:16:07;99708.66;;;13.38;56.32
8039;BME280;4062;49.844;8.120;2023-04-08T02:18:18;99700.72;;;13.38;56.31
8039;BME280;4062;49.844;8.120;2023-04-08T02:20:23;99706.03;;;13.38;56.42
8039;BME280;4062;49.844;8.120;2023-04-08T02:22:46;99704.28;;;13.37;56.36
8039;BME280;4062;49.844;8.120;2023-04-08T02:24:48;99708.66;;;13.38;56.29
8039;BME280;4062;49.844;8.120;2023-04-08T02:26:50;99711.31;;;13.38;56.33
8039;BME280;4062;49.844;8.120;2023-04-08T02:28:53;99708.66;;;13.38;56.34
8039;BME280;4062;49.844;8.120;2023-04-08T02:30:57;99705.16;;;13.38;56.15
8039;BME280;4062;49.844;8.120;2023-04-08T02:33:03;99710.47;;;13.38;56.40
8039;BME280;4062;49.844;8.120;2023-04-08T02:35:05;99716.63;;;13.38;56.32
8039;BME280;4062;49.844;8.120;2023-04-08T02:37:07;99713.97;;;13.38;56.33
8039;BME280;4062;49.844;8.120;2023-04-08T02:39:09;99709.59;;;13.39;56.45
8039;BME280;4062;49.844;8.120;2023-04-08T02:41:10;99713.13;;;13.38;56.27
8039;BME280;4062;49.844;8.120;2023-04-08T02:43:12;99711.31;;;13.38;56.42
8039;BME280;4062;49.844;8.120;2023-04-08T02:45:13;99708.66;;;13.38;56.29
8039;BME280;4062;49.844;8.120;2023-04-08T02:47:14;99711.31;;;13.38;56.21
8039;BME280;4062;49.844;8.120;2023-04-08T02:49:16;99712.25;;;13.37;56.27
8039;BME280;4062;49.844;8.120;2023-04-08T02:51:18;99711.31;;;13.38;56.29
8039;BME280;4062;49.844;8.120;2023-04-08T02:53:23;99711.31;;;13.38;56.33
8039;BME280;4062;49.844;8.120;2023-04-08T02:55:24;99708.66;;;13.38;56.34
8039;BME280;4062;49.844;8.120;2023-04-08T02:57:26;99716.63;;;13.38;56.20
8039;BME280;4062;49.844;8.120;2023-04-08T02:59:27;99713.13;;;13.38;56.34
8039;BME280;4062;49.844;8.120;2023-04-08T03:01:29;99712.25;;;13.37;56.40
8039;BME280;4062;49.844;8.120;2023-04-08T03:03:30;99712.25;;;13.37;56.21
8039;BME280;4062;49.844;8.120;2023-04-08T03:05:32;99706.06;;;13.37;56.28
8039;BME280;4062;49.844;8.120;2023-04-08T03:07:34;99712.25;;;13.37;56.29
8039;BME280;4062;49.844;8.120;2023-04-08T03:09:35;99711.34;;;13.40;56.32
8039;BME280;4062;49.844;8.120;2023-04-08T03:11:37;99711.31;;;13.38;56.24
8039;BME280;4062;49.844;8.120;2023-04-08T03:13:38;99712.25;;;13.37;56.42
8039;BME280;4062;49.844;8.120;2023-04-08T03:15:41;99717.53;;;13.37;56.36
8039;BME280;4062;49.844;8.120;2023-04-08T03:17:42;99717.53;;;13.37;56.22
8039;BME280;4062;49.844;8.120;2023-04-08T03:19:44;99711.38;;;13.37;56.32
8039;BME280;4062;49.844;8.120;2023-04-08T03:21:45;99720.19;;;13.37;56.35
8039;BME280;4062;49.844;8.120;2023-04-08T03:23:46;99721.09;;;13.38;56.25
8039;BME280;4062;49.844;8.120;2023-04-08T03:25:48;99725.50;;;13.37;56.40
8039;BME280;4062;49.844;8.120;2023-04-08T03:27:49;99729.97;;;13.37;56.41
8039;BME280;4062;49.844;8.120;2023-04-08T03:29:51;99725.50;;;13.37;56.25
8039;BME280;4062;49.844;8.120;2023-04-08T03:31:53;99721.09;;;13.38;56.31
8039;BME280;4062;49.844;8.120;2023-04-08T03:33:54;99725.50;;;13.37;56.39
8039;BME280;4062;49.844;8.120;2023-04-08T03:35:55;99727.31;;;13.37;56.30
8039;BME280;4062;49.844;8.120;2023-04-08T03:37:57;99728.16;;;13.37;56.36
8039;BME280;4062;49.844;8.120;2023-04-08T03:39:58;99725.56;;;13.36;56.34
8039;BME280;4062;49.844;8.120;2023-04-08T03:41:59;99728.16;;;13.37;56.33
8039;BME280;4062;49.844;8.120;2023-04-08T03:44:01;99725.50;;;13.37;56.25
8039;BME280;4062;49.844;8.120;2023-04-08T03:46:02;99729.97;;;13.37;56.40
8039;BME280;4062;49.844;8.120;2023-04-08T03:48:04;99729.91;;;13.38;56.29
8039;BME280;4062;49.844;8.120;2023-04-08T03:50:05;99737.03;;;13.36;56.36
8039;BME280;4062;49.844;8.120;2023-04-08T03:52:07;99730.81;;;13.37;56.25
8039;BME280;4062;49.844;8.120;2023-04-08T03:54:08;99734.34;;;13.38;56.32
8039;BME280;4062;49.844;8.120;2023-04-08T03:56:09;99731.72;;;13.36;56.38
8039;BME280;4062;49.844;8.120;2023-04-08T03:58:10;99733.47;;;13.37;56.30
8039;BME280;4062;49.844;8.120;2023-04-08T04:00:12;99735.28;;;13.37;56.35
8039;BME280;4062;49.844;8.120;2023-04-08T04:02:14;99727.31;;;13.37;56.35
8039;BME280;4062;49.844;8.120;2023-04-08T04:04:15;99730.81;;;13.37;56.33
8039;BME280;4062;49.844;8.120;2023-04-08T04:06:16;99735.28;;;13.37;56.29
8039;BME280;4062;49.844;8.120;2023-04-08T04:08:18;99737.03;;;13.36;56.27
8039;BME280;4062;49.844;8.120;2023-04-08T04:10:19;99737.94;;;13.37;56.29
8039;BME280;4062;49.844;8.120;2023-04-08T04:12:20;99734.38;;;13.36;56.33
8039;BME280;4062;49.844;8.120;2023-04-08T04:14:21;99744.09;;;13.37;56.36
8039;BME280;4062;49.844;8.120;2023-04-08T04:16:23;99736.13;;;13.37;56.33
8039;BME280;4062;49.844;8.120;2023-04-08T04:18:24;99742.34;;;13.36;56.36
8039;BME280;4062;49.844;8.120;2023-04-08T04:20:25;99743.22;;;13.37;56.39
8039;BME280;4062;49.844;8.120;2023-04-08T04:22:29;99741.50;;;13.36;56.37
8039;BME280;4062;49.844;8.120;2023-04-08T04:24:30;99734.38;;;13.36;56.36
8039;BME280;4062;49.844;8.120;2023-04-08T04:26:31;99745.88;;;13.37;56.35
8039;BME280;4062;49.844;8.120;2023-04-08T04:28:32;99750.31;;;13.36;56.23
8039;BME280;4062;49.844;8.120;2023-04-08T04:30:39;99748.53;;;13.37;56.42
8039;BME280;4062;49.844;8.120;2023-04-08T04:32:41;99749.44;;;13.36;56.46
8039;BME280;4062;49.844;8.120;2023-04-08T04:34:42;99752.97;;;13.36;56.40
8039;BME280;4062;49.844;8.120;2023-04-08T04:36:44;99751.19;;;13.37;56.41
8039;BME280;4062;49.844;8.120;2023-04-08T04:38:46;99755.63;;;13.36;56.38
8039;BME280;4062;49.844;8.120;2023-04-08T04:40:47;99747.66;;;13.36;56.25
8039;BME280;4062;49.844;8.120;2023-04-08T04:42:48;99755.63;;;13.36;56.43
8039;BME280;4062;49.844;8.120;2023-04-08T04:44:49;99761.81;;;13.37;56.32
8039;BME280;4062;49.844;8.120;2023-04-08T04:46:51;99751.25;;;13.35;56.41
8039;BME280;4062;49.844;8.120;2023-04-08T04:48:52;99759.16;;;13.37;56.25
8039;BME280;4062;49.844;8.120;2023-04-08T04:50:58;99756.56;;;13.35;56.33
8039;BME280;4062;49.844;8.120;2023-04-08T04:53:00;99755.63;;;13.36;56.40
8039;BME280;4062;49.844;8.120;2023-04-08T04:55:01;99762.72;;;13.36;56.37
8039;BME280;4062;49.844;8.120;2023-04-08T04:57:02;99759.22;;;13.35;56.44
8039;BME280;4062;49.844;8.120;2023-04-08T04:59:04;99767.13;;;13.37;56.18
8039;BME280;4062;49.844;8.120;2023-04-08T05:01:05;99766.22;;;13.36;56.27
8039;BME280;4062;49.844;8.120;2023-04-08T05:03:07;99766.22;;;13.36;56.33
8039;BME280;4062;49.844;8.120;2023-04-08T05:05:08;99769.78;;;13.37;56.35
8039;BME280;4062;49.844;8.120;2023-04-08T05:07:09;99768.88;;;13.36;56.38
8039;BME280;4062;49.844;8.120;2023-04-08T05:09:11;99772.44;;;13.37;56.34
8039;BME280;4062;49.844;8.120;2023-04-08T05:11:12;99763.56;;;13.36;56.39
8039;BME280;4062;49.844;8.120;2023-04-08T05:13:13;99771.53;;;13.36;56.40
8039;BME280;4062;49.844;8.120;2023-04-08T05:15:14;99762.72;;;13.36;56.27
8039;BME280;4062;49.844;8.120;2023-04-08T05:17:16;99775.13;;;13.35;56.36
8039;BME280;4062;49.844;8.120;2023-04-08T05:19:17;99779.50;;;13.36;56.34
8039;BME280;4062;49.844;8.120;2023-04-08T05:21:19;99777.78;;;13.35;56.37
8039;BME280;4062;49.844;8.120;2023-04-08T05:23:20;99779.50;;;13.36;56.33
8039;BME280;4062;49.844;8.120;2023-04-08T05:25:21;99787.47;;;13.36;56.34
8039;BME280;4062;49.844;8.120;2023-04-08T05:27:22;99780.44;;;13.35;56.34
8039;BME280;4062;49.844;8.120;2023-04-08T05:29:24;99784.81;;;13.36;56.21
8039;BME280;4062;49.844;8.120;2023-04-08T05:31:25;99788.41;;;13.35;56.30
8039;BME280;4062;49.844;8.120;2023-04-08T05:33:27;99778.66;;;13.36;56.46
8039;BME280;4062;49.844;8.120;2023-04-08T05:35:28;99791.91;;;13.36;56.27
8039;BME280;4062;49.844;8.120;2023-04-08T05:37:29;99786.59;;;13.36;56.42
8039;BME280;4062;49.844;8.120;2023-04-08T05:39:31;99789.25;;;13.36;56.21
8039;BME280;4062;49.844;8.120;2023-04-08T05:41:32;99785.75;;;13.35;56.40
8039;BME280;4062;49.844;8.120;2023-04-08T05:43:34;99797.22;;;13.36;56.29
8039;BME280;4062;49.844;8.120;2023-04-08T05:45:36;99802.53;;;13.36;56.14
8039;BME280;4062;49.844;8.120;2023-04-08T05:47:37;99797.22;;;13.36;56.29
8039;BME280;4062;49.844;8.120;2023-04-08T05:49:38;99796.38;;;13.35;56.49
8039;BME280;4062;49.844;8.120;2023-04-08T05:51:39;99802.53;;;13.36;56.41
8039;BME280;4062;49.844;8.120;2023-04-08T05:53:41;99806.03;;;13.36;56.36
8039;BME280;4062;49.844;8.120;2023-04-08T05:55:42;99811.34;;;13.36;56.32
8039;BME280;4062;49.844;8.120;2023-04-08T05:57:43;99806.03;;;13.36;56.32
8039;BME280;4062;49.844;8.120;2023-04-08T05:59:45;99807.84;;;13.36;56.27
8039;BME280;4062;49.844;8.120;2023-04-08T06:01:46;99812.22;;;13.37;56.25
8039;BME280;4062;49.844;8.120;2023-04-08T06:03:47;99819.31;;;13.36;56.28
8039;BME280;4062;49.844;8.120;2023-04-08T06:05:48;99817.53;;;13.37;56.41
8039;BME280;4062;49.844;8.120;2023-04-08T06:07:50;99815.78;;;13.36;56.30
8039;BME280;4062;49.844;8.120;2023-04-08T06:09:51;99817.53;;;13.37;56.25
8039;BME280;4062;49.844;8.120;2023-04-08T06:11:53;99813.16;;;13.36;56.32
8039;BME280;4062;49.844;8.120;2023-04-08T06:13:54;99819.31;;;13.36;56.40
8039;BME280;4062;49.844;8.120;2023-04-08T06:15:55;99820.19;;;13.37;56.39
8039;BME280;4062;49.844;8.120;2023-04-08T06:17:56;99814.00;;;13.36;56.38
8039;BME280;4062;49.844;8.120;2023-04-08T06:19:59;99813.16;;;13.36;56.42
8039;BME280;4062;49.844;8.120;2023-04-08T06:22:01;99815.78;;;13.36;56.21
8039;BME280;4062;49.844;8.120;2023-04-08T06:24:02;99816.66;;;13.36;56.47
8039;BME280;4062;49.844;8.120;2023-04-08T06:26:03;99821.09;;;13.36;56.36
8039;BME280;4062;49.844;8.120;2023-04-08T06:28:05;99826.34;;;13.37;56.33
8039;BME280;4062;49.844;8.120;2023-04-08T06:30:07;99821.09;;;13.36;56.26
8039;BME280;4062;49.844;8.120;2023-04-08T06:32:08;99826.41;;;13.36;56.40
8039;BME280;4062;49.844;8.120;2023-04-08T06:34:10;99828.16;;;13.37;56.33
8039;BME280;4062;49.844;8.120;2023-04-08T06:36:11;99831.72;;;13.36;56.28
8039;BME280;4062;49.844;8.120;2023-04-08T06:38:13;99833.53;;;13.35;56.35
8039;BME280;4062;49.844;8.120;2023-04-08T06:40:14;99840.53;;;13.36;56.34
8039;BME280;4062;49.844;8.120;2023-04-08T06:42:16;99840.53;;;13.36;56.41
8039;BME280;4062;49.844;8.120;2023-04-08T06:44:34;99835.22;;;13.36;56.35
8039;BME280;4062;49.844;8.120;2023-04-08T06:46:35;99840.53;;;13.36;56.38
8039;BME280;4062;49.844;8.120;2023-04-08T06:48:36;99837.03;;;13.36;56.29
8039;BME280;4062;49.844;8.120;2023-04-08T06:50:38;99836.97;;;13.37;56.39
8039;BME280;4062;49.844;8.120;2023-04-08T06:52:40;99841.44;;;13.37;56.39
8039;BME280;4062;49.844;8.120;2023-04-08T06:54:41;99844.09;;;13.37;56.25
8039;BME280;4062;49.844;8.120;2023-04-08T06:56:42;99843.19;;;13.36;56.18
8039;BME280;4062;49.844;8.120;2023-04-08T06:58:44;99844.09;;;13.37;56.34
8039;BME280;4062;49.844;8.120;2023-04-08T07:00:45;99844.09;;;13.37;56.20
8039;BME280;4062;49.844;8.120;2023-04-08T07:02:47;99858.25;;;13.36;56.29
8039;BME280;4062;49.844;8.120;2023-04-08T07:04:48;99849.38;;;13.37;56.34
8039;BME280;4062;49.844;8.120;2023-04-08T07:06:50;99847.66;;;13.36;56.28
8039;BME280;4062;49.844;8.120;2023-04-08T07:08:51;99851.16;;;13.36;56.42
8039;BME280;4062;49.844;8.120;2023-04-08T07:10:53;99857.34;;;13.37;56.36
8039;BME280;4062;49.844;8.120;2023-04-08T07:12:54;99853.81;;;13.36;56.25
8039;BME280;4062;49.844;8.120;2023-04-08T07:14:56;99855.56;;;13.37;56.33
8039;BME280;4062;49.844;8.120;2023-04-08T07:16:57;99851.16;;;13.36;56.48
8039;BME280;4062;49.844;8.120;2023-04-08T07:18:59;99848.50;;;13.36;56.47
8039;BME280;4062;49.844;8.120;2023-04-08T07:21:00;99862.59;;;13.38;56.40
8039;BME280;4062;49.844;8.120;2023-04-08T07:23:02;99851.16;;;13.36;56.34
8039;BME280;4062;49.844;8.120;2023-04-08T07:25:03;99866.16;;;13.37;56.21
8039;BME280;4062;49.844;8.120;2023-04-08T07:27:04;99848.50;;;13.36;56.36
8039;BME280;4062;49.844;8.120;2023-04-08T07:29:06;99860.00;;;13.37;56.32
8039;BME280;4062;49.844;8.120;2023-04-08T07:31:15;99863.50;;;13.37;56.39
8039;BME280;4062;49.844;8.120;2023-04-08T07:33:16;99868.81;;;13.37;56.22
8039;BME280;4062;49.844;8.120;2023-04-08T07:35:18;99862.59;;;13.38;56.37
8039;BME280;4062;49.844;8.120;2023-04-08T07:37:24;99873.22;;;13.38;56.26
8039;BME280;4062;49.844;8.120;2023-04-08T07:39:26;99870.56;;;13.38;56.19
8039;BME280;4062;49.844;8.120;2023-04-08T07:41:27;99871.50;;;13.39;56.19
8039;BME280;4062;49.844;8.120;2023-04-08T07:43:30;99868.84;;;13.39;56.25
8039;BME280;4062;49.844;8.120;2023-04-08T07:45:31;99875.00;;;13.39;56.33
8039;BME280;4062;49.844;8.120;2023-04-08T07:47:32;99872.34;;;13.39;56.14
8039;BME280;4062;49.844;8.120;2023-04-08T07:49:33;99870.56;;;13.40;56.10
8039;BME280;4062;49.844;8.120;2023-04-08T07:51:35;99871.44;;;13.40;56.14
8039;BME280;4062;49.844;8.120;2023-04-08T07:53:36;99876.75;;;13.40;56.23
8039;BME280;4062;49.844;8.120;2023-04-08T07:55:37;99882.06;;;13.40;56.20
8039;BME280;4062;49.844;8.120;2023-04-08T07:57:40;99886.44;;;13.41;56.19
8039;BME280;4062;49.844;8.120;2023-04-08T07:59:41;99886.44;;;13.41;56.29
8039;BME280;4062;49.844;8.120;2023-04-08T08:01:42;99884.72;;;13.40;56.19
8039;BME280;4062;49.844;8.120;2023-04-08T08:03:44;99890.00;;;13.40;56.31
8039;BME280;4062;49.844;8.120;2023-04-08T08:05:45;99891.81;;;13.40;56.07
8039;BME280;4062;49.844;8.120;2023-04-08T08:07:47;99896.22;;;13.39;56.18
8039;BME280;4062;49.844;8.120;2023-04-08T08:09:48;99894.47;;;13.40;56.25
8039;BME280;4062;49.844;8.120;2023-04-08T08:11:49;99901.53;;;13.39;56.17
8039;BME280;4062;49.844;8.120;2023-04-08T08:13:50;99898.88;;;13.39;56.23
8039;BME280;4062;49.844;8.120;2023-04-08T08:15:52;99906.00;;;13.39;56.20
8039;BME280;4062;49.844;8.120;2023-04-08T08:17:53;99906.84;;;13.39;56.19
8039;BME280;4062;49.844;8.120;2023-04-08T08:19:55;99906.84;;;13.39;56.13
8039;BME280;4062;49.844;8.120;2023-04-08T08:21:56;99914.81;;;13.39;56.25
8039;BME280;4062;49.844;8.120;2023-04-08T08:23:57;99913.03;;;13.40;56.05
8039;BME280;4062;49.844;8.120;2023-04-08T08:26:00;99908.66;;;13.39;56.14
8039;BME280;4062;49.844;8.120;2023-04-08T08:28:02;99918.34;;;13.38;56.13
8039;BME280;4062;49.844;8.120;2023-04-08T08:30:03;99917.47;;;13.39;56.20
8039;BME280;4062;49.844;8.120;2023-04-08T08:32:05;99920.13;;;13.39;56.17
8039;BME280;4062;49.844;8.120;2023-04-08T08:34:06;99921.91;;;13.39;56.05
8039;BME280;4062;49.844;8.120;2023-04-08T08:36:07;99922.78;;;13.39;56.13
8039;BME280;4062;49.844;8.120;2023-04-08T08:38:08;99921.91;;;13.39;56.18
8039;BME280;4062;49.844;8.120;2023-04-08T08:40:10;99917.47;;;13.39;56.25
8039;BME280;4062;49.844;8.120;2023-04-08T08:42:38;99921.91;;;13.39;56.20
8039;BME280;4062;49.844;8.120;2023-04-08T08:44:40;99928.09;;;13.39;56.14
8039;BME280;4062;49.844;8.120;2023-04-08T08:46:44;99926.31;;;13.40;56.35
8039;BME280;4062;49.844;8.120;2023-04-08T08:48:47;99920.13;;;13.39;56.19
8039;BME280;4062;49.844;8.120;2023-04-08T08:50:48;99925.44;;;13.39;56.17
8039;BME280;4062;49.844;8.120;2023-04-08T08:52:50;99925.44;;;13.39;56.28
8039;BME280;4062;49.844;8.120;2023-04-08T08:54:58;99926.31;;;13.38;56.31
8039;BME280;4062;49.844;8.120;2023-04-08T08:56:59;99932.47;;;13.40;56.23
8039;BME280;4062;49.844;8.120;2023-04-08T08:59:01;99934.28;;;13.40;56.24
8039;BME280;4062;49.844;8.120;2023-04-08T09:01:02;99935.13;;;13.40;56.16
8039;BME280;4062;49.844;8.120;2023-04-08T09:03:17;99934.28;;;13.40;56.19
8039;BME280;4062;49.844;8.120;2023-04-08T09:05:22;99936.94;;;13.40;56.17
8039;BME280;4062;49.844;8.120;2023-04-08T09:07:24;99941.34;;;13.39;56.14
8039;BME280;4062;49.844;8.120;2023-04-08T09:09:26;99942.25;;;13.40;56.16
8039;BME280;4062;49.844;8.120;2023-04-08T09:11:28;99942.25;;;13.40;56.08
8039;BME280;4062;49.844;8.120;2023-04-08T09:13:34;99941.31;;;13.41;56.20
8039;BME280;4062;49.844;8.120;2023-04-08T09:18:20;99944.84;;;13.41;56.26
8039;BME280;4062;49.844;8.120;2023-04-08T09:20:23;99942.19;;;13.41;56.12
8039;BME280;4062;49.844;8.120;2023-04-08T09:22:24;99946.59;;;13.41;56.06
8039;BME280;4062;49.844;8.120;2023-04-08T09:24:28;99949.25;;;13.41;56.16
8039;BME280;4062;49.844;8.120;2023-04-08T09:26:30;99951.06;;;13.40;56.18
8039;BME280;4062;49.844;8.120;2023-04-08T09:28:31;99943.94;;;13.41;56.02
8039;BME280;4062;49.844;8.120;2023-04-08T09:30:34;99943.94;;;13.41;56.23
8039;BME280;4062;49.844;8.120;2023-04-08T09:32:54;99943.94;;;13.41;56.26
8039;BME280;4062;49.844;8.120;2023-04-08T09:34:56;99943.09;;;13.40;56.25
8039;BME280;4062;49.844;8.120;2023-04-08T09:36:57;99949.25;;;13.41;56.20
8039;BME280;4062;49.844;8.120;2023-04-08T09:38:58;99947.56;;;13.40;56.20
8039;BME280;4062;49.844;8.120;2023-04-08T09:41:05;99956.38;;;13.40;56.31
8039;BME280;4062;49.844;8.120;2023-04-08T09:43:08;99958.13;;;13.41;56.06
8039;BME280;4062;49.844;8.120;2023-04-08T09:45:15;99967.84;;;13.41;56.16
8039;BME280;4062;49.844;8.120;2023-04-08T09:47:19;99955.50;;;13.40;56.18
8039;BME280;4062;49.844;8.120;2023-04-08T09:49:28;99959.88;;;13.41;56.18
8039;BME280;4062;49.844;8.120;2023-04-08T09:51:35;99957.22;;;13.41;56.09
8039;BME280;4062;49.844;8.120;2023-04-08T09:53:45;99962.53;;;13.41;56.17
8039;BME280;4062;49.844;8.120;2023-04-08T09:55:56;99962.53;;;13.41;56.05
8039;BME280;4062;49.844;8.120;2023-04-08T09:58:21;99970.50;;;13.41;56.23
8039;BME280;4062;49.844;8.120;2023-04-08T10:00:23;99967.84;;;13.41;56.11
8039;BME280;4062;49.844;8.120;2023-04-08T10:02:29;99962.53;;;13.41;56.12
8039;BME280;4062;49.844;8.120;2023-04-08T10:04:36;99967.84;;;13.41;56.20
8039;BME280;4062;49.844;8.120;2023-04-08T10:06:39;99967.84;;;13.41;56.06
8039;BME280;4062;49.844;8.120;2023-04-08T10:08:41;99964.34;;;13.40;56.17
8039;BME280;4062;49.844;8.120;2023-04-08T10:10:44;99961.69;;;13.40;56.13
8039;BME280;4062;49.844;8.120;2023-04-08T10:12:45;99968.72;;;13.41;56.28
8039;BME280;4062;49.844;8.120;2023-04-08T10:15:26;99970.50;;;13.41;56.05
8039;BME280;4062;49.844;8.120;2023-04-08T10:17:27;99965.19;;;13.41;56.16
8039;BME280;4062;49.844;8.120;2023-04-08T10:19:39;99962.53;;;13.41;56.12
8039;BME280;4062;49.844;8.120;2023-04-08T10:21:41;99965.19;;;13.41;56.20
8039;BME280;4062;49.844;8.120;2023-04-08T10:23:58;99974.03;;;13.41;56.32
8039;BME280;4062;49.844;8.120;2023-04-08T10:26:00;99967.84;;;13.41;56.23
8039;BME280;4062;49.844;8.120;2023-04-08T10:28:25;99967.84;;;13.41;56.12
8039;BME280;4062;49.844;8.120;2023-04-08T10:32:28;99956.38;;;13.40;56.14
8039;BME280;4062;49.844;8.120;2023-04-08T10:34:30;99974.03;;;13.41;56.22
8039;BME280;4062;49.844;8.120;2023-04-08T10:36:31;99966.06;;;13.41;56.10
8039;BME280;4062;49.844;8.120;2023-04-08T10:38:33;99973.16;;;13.41;56.10
8039;BME280;4062;49.844;8.120;2023-04-08T10:40:38;99967.81;;;13.42;56.11
8039;BME280;4062;49.844;8.120;2023-04-08T10:42:41;99976.69;;;13.41;56.19
8039;BME280;4062;49.844;8.120;2023-04-08T10:44:44;99969.63;;;13.40;56.13
8039;BME280;4062;49.844;8.120;2023-04-08T10:46:47;99974.03;;;13.41;56.15
8039;BME280;4062;49.844;8.120;2023-04-08T10:48:59;99963.41;;;13.41;56.15
8039;BME280;4062;49.844;8.120;2023-04-08T10:51:04;99966.06;;;13.41;56.25
8039;BME280;4062;49.844;8.120;2023-04-08T10:53:06;99968.72;;;13.41;56.18
8039;BME280;4062;49.844;8.120;2023-04-08T10:55:08;99966.06;;;13.41;56.08
8039;BME280;4062;49.844;8.120;2023-04-08T10:57:09;99958.13;;;13.41;56.05
8039;BME280;4062;49.844;8.120;2023-04-08T10:59:11;99968.72;;;13.41;56.01
8039;BME280;4062;49.844;8.120;2023-04-08T11:01:13;99968.72;;;13.41;56.09
8039;BME280;4062;49.844;8.120;2023-04-08T11:03:15;99968.72;;;13.41;56.06
8039;BME280;4062;49.844;8.120;2023-04-08T11:05:17;99967.84;;;13.41;56.22
8039;BME280;4062;49.844;8.120;2023-04-08T11:07:24;99964.28;;;13.42;56.13
8039;BME280;4062;49.844;8.120;2023-04-08T11:09:25;99962.53;;;13.41;56.16
8039;BME280;4062;49.844;8.120;2023-04-08T11:11:28;99964.28;;;13.42;56.13
8039;BME280;4062;49.844;8.120;2023-04-08T11:13:30;99963.41;;;13.41;56.10
8039;BME280;4062;49.844;8.120;2023-04-08T11:15:32;99966.94;;;13.42;56.21
8039;BME280;4062;49.844;8.120;2023-04-08T11:17:36;99962.53;;;13.41;56.08